sensor_id;sensor_type;location;lat;lon;timestamp;temperature;humidity
19220;DHT22;9744;49.364;7.484;2024-01-11T00:01:27;-3.40;99.90
19220;DHT22;9744;49.364;7.484;2024-01-11T00:03:54;-3.30;99.90
19220;DHT22;9744;49.364;7.484;2024-01-11T00:06:23;-3.30;99.90
19220;DHT22;9744;49.364;7.484;2024-01-11T00:08:50;-3.30;99.90
19220;DHT22;9744;49.364;7.484;2024-01-11T00:11:17;-3.20;99.90
19220;DHT22;9744;49.364;7.484;2024-01-11T00:13:45;-3.30;99.90
19220;DHT22;9744;49.364;7.484;2024-01-11T00:16:12;-3.40;99.90
19220;DHT22;9744;49.364;7.484;2024-01-11T00:18:39;-3.50;99.90
19220;DHT22;9744;49.364;7.484;2024-01-11T00:21:06;-3.40;99.90
19220;DHT22;9744;49.364;7.484;2024-01-11T00:23:35;-3.30;99.90
19220;DHT22;9744;49.364;7.484;2024-01-11T00:26:02;-2.90;99.90
19220;DHT22;9744;49.364;7.484;2024-01-11T00:28:29;-3.30;99.90
19220;DHT22;9744;49.364;7.484;2024-01-11T00:30:57;-3.40;99.90
19220;DHT22;9744;49.364;7.484;2024-01-11T00:33:24;-3.50;99.90
19220;DHT22;9744;49.364;7.484;2024-01-11T00:35:51;-3.50;99.90
19220;DHT22;9744;49.364;7.484;2024-01-11T00:38:19;-3.50;99.90
19220;DHT22;9744;49.364;7.484;2024-01-11T00:40:47;-3.30;99.90
19220;DHT22;9744;49.364;7.484;2024-01-11T00:43:15;-3.40;99.90
19220;DHT22;9744;49.364;7.484;2024-01-11T00:45:43;-3.30;99.90
19220;DHT22;9744;49.364;7.484;2024-01-11T00:48:11;-3.30;99.90
19220;DHT22;9744;49.364;7.484;2024-01-11T00:50:39;-3.20;99.90
19220;DHT22;9744;49.364;7.484;2024-01-11T00:53:06;-3.20;99.90
19220;DHT22;9744;49.364;7.484;2024-01-11T00:55:34;-3.10;99.90
19220;DHT22;9744;49.364;7.484;2024-01-11T00:58:03;-3.50;99.90
19220;DHT22;9744;49.364;7.484;2024-01-11T01:00:30;-3.50;99.90
19220;DHT22;9744;49.364;7.484;2024-01-11T01:02:57;-3.40;99.90
19220;DHT22;9744;49.364;7.484;2024-01-11T01:05:24;-3.50;99.90
19220;DHT22;9744;49.364;7.484;2024-01-11T01:07:51;-3.40;99.90
19220;DHT22;9744;49.364;7.484;2024-01-11T01:10:19;-3.30;99.90
19220;DHT22;9744;49.364;7.484;2024-01-11T01:12:46;-3.30;99.90
19220;DHT22;9744;49.364;7.484;2024-01-11T01:15:15;-3.30;99.90
19220;DHT22;9744;49.364;7.484;2024-01-11T01:17:42;-3.50;99.90
19220;DHT22;9744;49.364;7.484;2024-01-11T01:20:10;-3.40;99.90
19220;DHT22;9744;49.364;7.484;2024-01-11T01:22:37;-3.50;99.90
19220;DHT22;9744;49.364;7.484;2024-01-11T01:25:05;-3.60;99.90
19220;DHT22;9744;49.364;7.484;2024-01-11T01:27:32;-3.60;99.90
19220;DHT22;9744;49.364;7.484;2024-01-11T01:29:59;-3.70;99.90
19220;DHT22;9744;49.364;7.484;2024-01-11T01:32:28;-3.70;99.90
19220;DHT22;9744;49.364;7.484;2024-01-11T01:34:56;-3.80;99.90
19220;DHT22;9744;49.364;7.484;2024-01-11T01:37:23;-4.00;99.90
19220;DHT22;9744;49.364;7.484;2024-01-11T01:39:50;-4.10;99.90
19220;DHT22;9744;49.364;7.484;2024-01-11T01:42:18;-4.00;99.90
19220;DHT22;9744;49.364;7.484;2024-01-11T01:44:45;-3.90;99.90
19220;DHT22;9744;49.364;7.484;2024-01-11T01:47:12;-4.20;99.90
19220;DHT22;9744;49.364;7.484;2024-01-11T01:49:43;-4.20;99.90
19220;DHT22;9744;49.364;7.484;2024-01-11T01:52:11;-4.20;99.90
19220;DHT22;9744;49.364;7.484;2024-01-11T01:54:41;-4.20;99.90
19220;DHT22;9744;49.364;7.484;2024-01-11T01:57:10;-4.10;99.90
19220;DHT22;9744;49.364;7.484;2024-01-11T01:59:38;-4.00;99.90
19220;DHT22;9744;49.364;7.484;2024-01-11T02:02:05;-4.00;99.90
19220;DHT22;9744;49.364;7.484;2024-01-11T02:04:33;-3.90;99.90
19220;DHT22;9744;49.364;7.484;2024-01-11T02:07:04;-3.80;99.90
19220;DHT22;9744;49.364;7.484;2024-01-11T02:09:33;-3.70;99.90
19220;DHT22;9744;49.364;7.484;2024-01-11T02:12:01;-3.60;99.90
19220;DHT22;9744;49.364;7.484;2024-01-11T02:14:30;-3.50;99.90
19220;DHT22;9744;49.364;7.484;2024-01-11T02:16:58;-3.50;99.90
19220;DHT22;9744;49.364;7.484;2024-01-11T02:19:25;-3.60;99.90
19220;DHT22;9744;49.364;7.484;2024-01-11T02:21:54;-3.70;99.90
19220;DHT22;9744;49.364;7.484;2024-01-11T02:24:24;-3.60;99.90
19220;DHT22;9744;49.364;7.484;2024-01-11T02:26:58;-3.50;99.90
19220;DHT22;9744;49.364;7.484;2024-01-11T02:29:26;-3.40;99.90
19220;DHT22;9744;49.364;7.484;2024-01-11T02:31:54;-3.40;99.90
19220;DHT22;9744;49.364;7.484;2024-01-11T02:34:21;-3.40;99.90
19220;DHT22;9744;49.364;7.484;2024-01-11T02:36:49;-3.40;99.90
19220;DHT22;9744;49.364;7.484;2024-01-11T02:39:17;-3.50;99.90
19220;DHT22;9744;49.364;7.484;2024-01-11T02:41:47;-3.50;99.90
19220;DHT22;9744;49.364;7.484;2024-01-11T02:44:16;-3.50;99.90
19220;DHT22;9744;49.364;7.484;2024-01-11T02:46:44;-3.60;99.90
19220;DHT22;9744;49.364;7.484;2024-01-11T02:49:11;-3.60;99.90
19220;DHT22;9744;49.364;7.484;2024-01-11T02:51:38;-3.70;99.90
19220;DHT22;9744;49.364;7.484;2024-01-11T02:54:05;-3.50;99.90
19220;DHT22;9744;49.364;7.484;2024-01-11T02:56:32;-3.50;99.90
19220;DHT22;9744;49.364;7.484;2024-01-11T02:59:01;-3.60;99.90
19220;DHT22;9744;49.364;7.484;2024-01-11T03:01:29;-3.60;99.90
19220;DHT22;9744;49.364;7.484;2024-01-11T03:03:56;-3.60;99.90
19220;DHT22;9744;49.364;7.484;2024-01-11T03:06:24;-3.60;99.90
19220;DHT22;9744;49.364;7.484;2024-01-11T03:08:51;-3.50;99.90
19220;DHT22;9744;49.364;7.484;2024-01-11T03:11:18;-3.50;99.90
19220;DHT22;9744;49.364;7.484;2024-01-11T03:13:45;-3.40;99.90
19220;DHT22;9744;49.364;7.484;2024-01-11T03:16:14;-3.40;99.90
19220;DHT22;9744;49.364;7.484;2024-01-11T03:18:41;-3.30;99.90
19220;DHT22;9744;49.364;7.484;2024-01-11T03:21:08;-3.40;99.90
19220;DHT22;9744;49.364;7.484;2024-01-11T03:23:36;-3.40;99.90
19220;DHT22;9744;49.364;7.484;2024-01-11T03:26:03;-3.40;99.90
19220;DHT22;9744;49.364;7.484;2024-01-11T03:28:30;-3.30;99.90
19220;DHT22;9744;49.364;7.484;2024-01-11T03:30:57;-3.30;99.90
19220;DHT22;9744;49.364;7.484;2024-01-11T03:33:26;-3.20;99.90
19220;DHT22;9744;49.364;7.484;2024-01-11T03:35:54;-3.10;99.90
19220;DHT22;9744;49.364;7.484;2024-01-11T03:38:22;-2.90;99.90
19220;DHT22;9744;49.364;7.484;2024-01-11T03:40:49;-3.20;99.90
19220;DHT22;9744;49.364;7.484;2024-01-11T03:43:17;-3.10;99.90
19220;DHT22;9744;49.364;7.484;2024-01-11T03:45:44;-3.00;99.90
19220;DHT22;9744;49.364;7.484;2024-01-11T03:48:11;-3.00;99.90
19220;DHT22;9744;49.364;7.484;2024-01-11T03:50:40;-3.00;99.90
19220;DHT22;9744;49.364;7.484;2024-01-11T03:53:07;-3.00;99.90
19220;DHT22;9744;49.364;7.484;2024-01-11T03:55:35;-3.10;99.90
19220;DHT22;9744;49.364;7.484;2024-01-11T03:58:02;-3.30;99.90
19220;DHT22;9744;49.364;7.484;2024-01-11T04:00:29;-3.50;99.90
19220;DHT22;9744;49.364;7.484;2024-01-11T04:02:58;-3.70;99.90
19220;DHT22;9744;49.364;7.484;2024-01-11T04:05:25;-4.00;99.90
19220;DHT22;9744;49.364;7.484;2024-01-11T04:07:54;-4.10;99.90
19220;DHT22;9744;49.364;7.484;2024-01-11T04:10:21;-4.10;99.90
19220;DHT22;9744;49.364;7.484;2024-01-11T04:12:48;-4.20;99.90
19220;DHT22;9744;49.364;7.484;2024-01-11T04:15:15;-4.10;99.90
19220;DHT22;9744;49.364;7.484;2024-01-11T04:17:43;-4.20;99.90
19220;DHT22;9744;49.364;7.484;2024-01-11T04:20:10;-4.10;99.90
19220;DHT22;9744;49.364;7.484;2024-01-11T04:22:38;-4.10;99.90
19220;DHT22;9744;49.364;7.484;2024-01-11T04:25:07;-4.20;99.90
19220;DHT22;9744;49.364;7.484;2024-01-11T04:27:35;-4.10;99.90
19220;DHT22;9744;49.364;7.484;2024-01-11T04:30:02;-4.10;99.90
19220;DHT22;9744;49.364;7.484;2024-01-11T04:32:30;-3.90;99.90
19220;DHT22;9744;49.364;7.484;2024-01-11T04:34:57;-3.90;99.90
19220;DHT22;9744;49.364;7.484;2024-01-11T04:37:24;-3.90;99.90
19220;DHT22;9744;49.364;7.484;2024-01-11T04:39:51;-4.00;99.90
19220;DHT22;9744;49.364;7.484;2024-01-11T04:42:20;-4.00;99.90
19220;DHT22;9744;49.364;7.484;2024-01-11T04:44:47;-4.10;99.90
19220;DHT22;9744;49.364;7.484;2024-01-11T04:47:14;-4.00;99.90
19220;DHT22;9744;49.364;7.484;2024-01-11T04:49:41;-4.00;99.90
19220;DHT22;9744;49.364;7.484;2024-01-11T04:52:08;-4.00;99.90
19220;DHT22;9744;49.364;7.484;2024-01-11T04:54:37;-4.00;99.90
19220;DHT22;9744;49.364;7.484;2024-01-11T04:57:04;-3.90;99.90
19220;DHT22;9744;49.364;7.484;2024-01-11T04:59:32;-3.90;99.90
19220;DHT22;9744;49.364;7.484;2024-01-11T05:02:00;-3.90;99.90
19220;DHT22;9744;49.364;7.484;2024-01-11T05:04:27;-3.90;99.90
19220;DHT22;9744;49.364;7.484;2024-01-11T05:06:54;-4.00;99.90
19220;DHT22;9744;49.364;7.484;2024-01-11T05:09:21;-4.30;99.90
19220;DHT22;9744;49.364;7.484;2024-01-11T05:11:48;-4.30;99.90
19220;DHT22;9744;49.364;7.484;2024-01-11T05:14:16;-4.40;99.90
19220;DHT22;9744;49.364;7.484;2024-01-11T05:16:44;-4.30;99.90
19220;DHT22;9744;49.364;7.484;2024-01-11T05:19:11;-4.30;99.90
19220;DHT22;9744;49.364;7.484;2024-01-11T05:21:39;-4.40;99.90
19220;DHT22;9744;49.364;7.484;2024-01-11T05:24:06;-4.30;99.90
19220;DHT22;9744;49.364;7.484;2024-01-11T05:26:33;-4.10;99.90
19220;DHT22;9744;49.364;7.484;2024-01-11T05:29:00;-4.20;99.90
19220;DHT22;9744;49.364;7.484;2024-01-11T05:31:31;-4.20;99.90
19220;DHT22;9744;49.364;7.484;2024-01-11T05:33:59;-4.30;99.90
19220;DHT22;9744;49.364;7.484;2024-01-11T05:36:26;-4.30;99.90
19220;DHT22;9744;49.364;7.484;2024-01-11T05:38:54;-4.40;99.90
19220;DHT22;9744;49.364;7.484;2024-01-11T05:41:21;-4.40;99.90
19220;DHT22;9744;49.364;7.484;2024-01-11T05:43:48;-4.20;99.90
19220;DHT22;9744;49.364;7.484;2024-01-11T05:46:16;-4.20;99.90
19220;DHT22;9744;49.364;7.484;2024-01-11T05:48:43;-4.20;99.90
19220;DHT22;9744;49.364;7.484;2024-01-11T05:51:16;-4.10;99.90
19220;DHT22;9744;49.364;7.484;2024-01-11T05:53:43;-4.20;99.90
19220;DHT22;9744;49.364;7.484;2024-01-11T05:56:10;-4.20;99.90
19220;DHT22;9744;49.364;7.484;2024-01-11T05:58:39;-4.30;99.90
19220;DHT22;9744;49.364;7.484;2024-01-11T06:01:06;-4.40;99.90
19220;DHT22;9744;49.364;7.484;2024-01-11T06:03:33;-4.50;99.90
19220;DHT22;9744;49.364;7.484;2024-01-11T06:06:00;-4.40;99.90
19220;DHT22;9744;49.364;7.484;2024-01-11T06:08:30;-4.30;99.90
19220;DHT22;9744;49.364;7.484;2024-01-11T06:10:58;-4.10;99.90
19220;DHT22;9744;49.364;7.484;2024-01-11T06:13:25;-4.10;99.90
19220;DHT22;9744;49.364;7.484;2024-01-11T06:15:53;-4.10;99.90
19220;DHT22;9744;49.364;7.484;2024-01-11T06:18:20;-4.10;99.90
19220;DHT22;9744;49.364;7.484;2024-01-11T06:20:48;-4.00;99.90
19220;DHT22;9744;49.364;7.484;2024-01-11T06:23:15;-4.00;99.90
19220;DHT22;9744;49.364;7.484;2024-01-11T06:25:45;-4.10;99.90
19220;DHT22;9744;49.364;7.484;2024-01-11T06:28:13;-4.10;99.90
19220;DHT22;9744;49.364;7.484;2024-01-11T06:30:40;-4.30;99.90
19220;DHT22;9744;49.364;7.484;2024-01-11T06:33:08;-4.30;99.90
19220;DHT22;9744;49.364;7.484;2024-01-11T06:35:36;-4.20;99.90
19220;DHT22;9744;49.364;7.484;2024-01-11T06:38:03;-4.40;99.90
19220;DHT22;9744;49.364;7.484;2024-01-11T06:40:30;-4.40;99.90
19220;DHT22;9744;49.364;7.484;2024-01-11T06:42:59;-4.30;99.90
19220;DHT22;9744;49.364;7.484;2024-01-11T06:45:26;-4.10;99.90
19220;DHT22;9744;49.364;7.484;2024-01-11T06:47:53;-4.00;99.90
19220;DHT22;9744;49.364;7.484;2024-01-11T06:50:20;-4.10;99.90
19220;DHT22;9744;49.364;7.484;2024-01-11T06:52:47;-4.10;99.90
19220;DHT22;9744;49.364;7.484;2024-01-11T06:55:15;-4.20;99.90
19220;DHT22;9744;49.364;7.484;2024-01-11T06:57:42;-4.30;99.90
19220;DHT22;9744;49.364;7.484;2024-01-11T07:00:11;-4.20;99.90
19220;DHT22;9744;49.364;7.484;2024-01-11T07:02:39;-4.40;99.90
19220;DHT22;9744;49.364;7.484;2024-01-11T07:05:07;-4.50;99.90
19220;DHT22;9744;49.364;7.484;2024-01-11T07:07:34;-4.40;99.90
19220;DHT22;9744;49.364;7.484;2024-01-11T07:10:01;-4.50;99.90
19220;DHT22;9744;49.364;7.484;2024-01-11T07:12:31;-4.40;99.90
19220;DHT22;9744;49.364;7.484;2024-01-11T07:14:58;-4.40;99.90
19220;DHT22;9744;49.364;7.484;2024-01-11T07:17:27;-4.30;99.90
19220;DHT22;9744;49.364;7.484;2024-01-11T07:19:54;-4.30;99.90
19220;DHT22;9744;49.364;7.484;2024-01-11T07:22:21;-4.30;99.90
19220;DHT22;9744;49.364;7.484;2024-01-11T07:24:48;-4.30;99.90
19220;DHT22;9744;49.364;7.484;2024-01-11T07:27:16;-4.30;99.90
19220;DHT22;9744;49.364;7.484;2024-01-11T07:29:43;-4.30;99.90
19220;DHT22;9744;49.364;7.484;2024-01-11T07:32:10;-4.30;99.90
19220;DHT22;9744;49.364;7.484;2024-01-11T07:34:38;-4.30;99.90
19220;DHT22;9744;49.364;7.484;2024-01-11T07:37:06;-4.20;99.90
19220;DHT22;9744;49.364;7.484;2024-01-11T07:39:33;-4.20;99.90
19220;DHT22;9744;49.364;7.484;2024-01-11T07:42:03;-4.30;99.90
19220;DHT22;9744;49.364;7.484;2024-01-11T07:44:31;-4.40;99.90
19220;DHT22;9744;49.364;7.484;2024-01-11T07:46:59;-4.50;99.90
19220;DHT22;9744;49.364;7.484;2024-01-11T07:49:26;-4.50;99.90
19220;DHT22;9744;49.364;7.484;2024-01-11T07:51:54;-4.40;99.90
19220;DHT22;9744;49.364;7.484;2024-01-11T07:54:22;-4.40;99.90
19220;DHT22;9744;49.364;7.484;2024-01-11T07:56:49;-4.30;99.90
19220;DHT22;9744;49.364;7.484;2024-01-11T07:59:16;-4.30;99.90
19220;DHT22;9744;49.364;7.484;2024-01-11T08:01:44;-4.30;99.90
19220;DHT22;9744;49.364;7.484;2024-01-11T08:04:11;-4.20;99.90
19220;DHT22;9744;49.364;7.484;2024-01-11T08:06:38;-4.20;99.90
19220;DHT22;9744;49.364;7.484;2024-01-11T08:09:07;-4.20;99.90
19220;DHT22;9744;49.364;7.484;2024-01-11T08:11:36;-4.20;99.90
19220;DHT22;9744;49.364;7.484;2024-01-11T08:14:03;-4.20;99.90
19220;DHT22;9744;49.364;7.484;2024-01-11T08:16:31;-4.30;99.90
19220;DHT22;9744;49.364;7.484;2024-01-11T08:18:58;-4.40;99.90
19220;DHT22;9744;49.364;7.484;2024-01-11T08:21:26;-4.40;99.90
19220;DHT22;9744;49.364;7.484;2024-01-11T08:23:54;-4.30;99.90
19220;DHT22;9744;49.364;7.484;2024-01-11T08:26:22;-4.20;99.90
19220;DHT22;9744;49.364;7.484;2024-01-11T08:28:49;-4.20;99.90
19220;DHT22;9744;49.364;7.484;2024-01-11T08:31:17;-4.10;99.90
19220;DHT22;9744;49.364;7.484;2024-01-11T08:33:44;-4.00;99.90
19220;DHT22;9744;49.364;7.484;2024-01-11T08:36:11;-3.90;99.90
19220;DHT22;9744;49.364;7.484;2024-01-11T08:38:39;-3.90;99.90
19220;DHT22;9744;49.364;7.484;2024-01-11T08:41:07;-3.70;99.90
19220;DHT22;9744;49.364;7.484;2024-01-11T08:43:35;-3.60;99.90
19220;DHT22;9744;49.364;7.484;2024-01-11T08:46:03;-3.50;99.90
19220;DHT22;9744;49.364;7.484;2024-01-11T08:48:30;-3.50;99.90
19220;DHT22;9744;49.364;7.484;2024-01-11T08:50:57;-3.50;99.90
19220;DHT22;9744;49.364;7.484;2024-01-11T08:53:24;-3.40;99.90
19220;DHT22;9744;49.364;7.484;2024-01-11T08:55:52;-3.30;99.90
19220;DHT22;9744;49.364;7.484;2024-01-11T08:58:20;-3.30;99.90
19220;DHT22;9744;49.364;7.484;2024-01-11T09:00:48;-3.30;99.90
19220;DHT22;9744;49.364;7.484;2024-01-11T09:03:15;-3.30;99.90
19220;DHT22;9744;49.364;7.484;2024-01-11T09:05:43;-3.30;99.90
19220;DHT22;9744;49.364;7.484;2024-01-11T09:08:11;-3.20;99.90
19220;DHT22;9744;49.364;7.484;2024-01-11T09:10:38;-3.00;99.90
19220;DHT22;9744;49.364;7.484;2024-01-11T09:13:07;-2.90;99.90
19220;DHT22;9744;49.364;7.484;2024-01-11T09:15:34;-2.80;99.90
19220;DHT22;9744;49.364;7.484;2024-01-11T09:18:03;-2.60;99.90
19220;DHT22;9744;49.364;7.484;2024-01-11T09:20:30;-2.50;99.90
19220;DHT22;9744;49.364;7.484;2024-01-11T09:22:58;-2.40;99.90
19220;DHT22;9744;49.364;7.484;2024-01-11T09:25:25;-2.20;99.90
19220;DHT22;9744;49.364;7.484;2024-01-11T09:27:52;-2.20;99.90
19220;DHT22;9744;49.364;7.484;2024-01-11T09:30:19;-2.10;99.90
19220;DHT22;9744;49.364;7.484;2024-01-11T09:32:46;-1.90;99.90
19220;DHT22;9744;49.364;7.484;2024-01-11T09:35:15;-1.80;99.90
19220;DHT22;9744;49.364;7.484;2024-01-11T09:37:42;-1.60;99.90
19220;DHT22;9744;49.364;7.484;2024-01-11T09:40:12;-1.50;99.90
19220;DHT22;9744;49.364;7.484;2024-01-11T09:42:40;-1.40;99.90
19220;DHT22;9744;49.364;7.484;2024-01-11T09:45:09;-1.20;99.90
19220;DHT22;9744;49.364;7.484;2024-01-11T09:47:38;-1.10;99.90
19220;DHT22;9744;49.364;7.484;2024-01-11T09:50:07;-1.00;99.90
19220;DHT22;9744;49.364;7.484;2024-01-11T09:52:37;-0.70;99.90
19220;DHT22;9744;49.364;7.484;2024-01-11T09:55:06;-0.60;99.90
19220;DHT22;9744;49.364;7.484;2024-01-11T09:57:36;-0.40;99.90
19220;DHT22;9744;49.364;7.484;2024-01-11T10:00:05;-0.20;99.90
19220;DHT22;9744;49.364;7.484;2024-01-11T10:02:33;-0.10;99.90
19220;DHT22;9744;49.364;7.484;2024-01-11T10:05:00;0.10;99.90
19220;DHT22;9744;49.364;7.484;2024-01-11T10:07:29;0.30;99.90
19220;DHT22;9744;49.364;7.484;2024-01-11T10:09:58;0.50;99.90
19220;DHT22;9744;49.364;7.484;2024-01-11T10:12:27;0.70;99.90
19220;DHT22;9744;49.364;7.484;2024-01-11T10:14:54;0.70;99.90
19220;DHT22;9744;49.364;7.484;2024-01-11T10:17:22;0.80;99.90
19220;DHT22;9744;49.364;7.484;2024-01-11T10:19:53;0.90;99.90
19220;DHT22;9744;49.364;7.484;2024-01-11T10:22:20;1.10;99.90
19220;DHT22;9744;49.364;7.484;2024-01-11T10:24:47;1.20;99.90
19220;DHT22;9744;49.364;7.484;2024-01-11T10:27:16;1.30;99.90
19220;DHT22;9744;49.364;7.484;2024-01-11T10:29:43;1.30;99.90
19220;DHT22;9744;49.364;7.484;2024-01-11T10:32:10;1.30;99.90
19220;DHT22;9744;49.364;7.484;2024-01-11T10:34:38;1.50;99.90
19220;DHT22;9744;49.364;7.484;2024-01-11T10:37:07;1.50;99.90
19220;DHT22;9744;49.364;7.484;2024-01-11T10:39:36;1.60;99.90
19220;DHT22;9744;49.364;7.484;2024-01-11T10:42:05;1.60;99.90
19220;DHT22;9744;49.364;7.484;2024-01-11T10:44:35;1.80;99.90
19220;DHT22;9744;49.364;7.484;2024-01-11T10:47:06;2.00;99.90
19220;DHT22;9744;49.364;7.484;2024-01-11T10:49:39;2.10;99.90
19220;DHT22;9744;49.364;7.484;2024-01-11T10:52:11;2.20;99.90
19220;DHT22;9744;49.364;7.484;2024-01-11T10:54:40;2.30;99.90
19220;DHT22;9744;49.364;7.484;2024-01-11T10:57:08;2.40;99.90
19220;DHT22;9744;49.364;7.484;2024-01-11T10:59:39;2.70;99.90
19220;DHT22;9744;49.364;7.484;2024-01-11T11:02:08;2.60;99.90
19220;DHT22;9744;49.364;7.484;2024-01-11T11:04:39;2.70;99.90
19220;DHT22;9744;49.364;7.484;2024-01-11T11:07:08;3.00;99.90
19220;DHT22;9744;49.364;7.484;2024-01-11T11:09:35;3.10;99.90
19220;DHT22;9744;49.364;7.484;2024-01-11T11:12:06;3.20;99.90
19220;DHT22;9744;49.364;7.484;2024-01-11T11:14:34;3.40;99.90
19220;DHT22;9744;49.364;7.484;2024-01-11T11:17:04;3.50;99.90
19220;DHT22;9744;49.364;7.484;2024-01-11T11:19:32;3.80;99.90
19220;DHT22;9744;49.364;7.484;2024-01-11T11:22:03;4.00;99.90
19220;DHT22;9744;49.364;7.484;2024-01-11T11:24:33;4.10;99.90
19220;DHT22;9744;49.364;7.484;2024-01-11T11:27:01;4.20;99.90
19220;DHT22;9744;49.364;7.484;2024-01-11T11:29:29;4.40;99.90
19220;DHT22;9744;49.364;7.484;2024-01-11T11:31:56;4.70;99.90
19220;DHT22;9744;49.364;7.484;2024-01-11T11:37:24;4.60;99.90
19220;DHT22;9744;49.364;7.484;2024-01-11T11:39:51;4.80;99.90
19220;DHT22;9744;49.364;7.484;2024-01-11T11:42:19;5.00;99.90
19220;DHT22;9744;49.364;7.484;2024-01-11T11:44:49;5.30;99.90
19220;DHT22;9744;49.364;7.484;2024-01-11T11:47:19;5.50;99.90
19220;DHT22;9744;49.364;7.484;2024-01-11T11:50:08;5.40;99.90
19220;DHT22;9744;49.364;7.484;2024-01-11T11:52:39;5.60;99.90
19220;DHT22;9744;49.364;7.484;2024-01-11T11:55:08;5.60;99.90
19220;DHT22;9744;49.364;7.484;2024-01-11T11:57:36;5.70;99.90
19220;DHT22;9744;49.364;7.484;2024-01-11T12:00:04;5.70;99.90
19220;DHT22;9744;49.364;7.484;2024-01-11T12:02:37;5.70;99.90
19220;DHT22;9744;49.364;7.484;2024-01-11T12:05:06;5.90;99.90
19220;DHT22;9744;49.364;7.484;2024-01-11T12:07:34;6.20;99.90
19220;DHT22;9744;49.364;7.484;2024-01-11T12:10:03;6.40;99.90
19220;DHT22;9744;49.364;7.484;2024-01-11T12:12:31;6.60;99.90
19220;DHT22;9744;49.364;7.484;2024-01-11T12:14:58;6.50;99.90
19220;DHT22;9744;49.364;7.484;2024-01-11T12:17:26;6.20;99.90
19220;DHT22;9744;49.364;7.484;2024-01-11T12:19:53;6.20;99.90
19220;DHT22;9744;49.364;7.484;2024-01-11T12:22:20;6.30;99.90
19220;DHT22;9744;49.364;7.484;2024-01-11T12:24:48;6.60;99.90
19220;DHT22;9744;49.364;7.484;2024-01-11T12:27:17;7.00;99.90
19220;DHT22;9744;49.364;7.484;2024-01-11T12:29:44;7.30;99.90
19220;DHT22;9744;49.364;7.484;2024-01-11T12:32:11;7.30;99.90
19220;DHT22;9744;49.364;7.484;2024-01-11T12:34:41;7.30;99.90
19220;DHT22;9744;49.364;7.484;2024-01-11T12:37:09;7.80;99.90
19220;DHT22;9744;49.364;7.484;2024-01-11T12:39:38;7.90;99.90
19220;DHT22;9744;49.364;7.484;2024-01-11T12:42:06;8.30;99.90
19220;DHT22;9744;49.364;7.484;2024-01-11T12:44:36;8.50;99.90
19220;DHT22;9744;49.364;7.484;2024-01-11T12:47:06;8.80;99.90
19220;DHT22;9744;49.364;7.484;2024-01-11T12:49:34;8.60;99.90
19220;DHT22;9744;49.364;7.484;2024-01-11T12:52:02;8.80;99.90
19220;DHT22;9744;49.364;7.484;2024-01-11T12:54:32;8.80;99.90
19220;DHT22;9744;49.364;7.484;2024-01-11T12:57:00;8.90;99.90
19220;DHT22;9744;49.364;7.484;2024-01-11T12:59:28;9.20;99.90
19220;DHT22;9744;49.364;7.484;2024-01-11T13:01:57;9.10;99.90
19220;DHT22;9744;49.364;7.484;2024-01-11T13:04:25;9.10;99.90
19220;DHT22;9744;49.364;7.484;2024-01-11T13:06:53;8.80;99.90
19220;DHT22;9744;49.364;7.484;2024-01-11T13:09:21;8.60;99.90
19220;DHT22;9744;49.364;7.484;2024-01-11T13:11:48;8.60;99.90
19220;DHT22;9744;49.364;7.484;2024-01-11T13:14:16;8.60;99.90
19220;DHT22;9744;49.364;7.484;2024-01-11T13:16:45;8.40;99.90
19220;DHT22;9744;49.364;7.484;2024-01-11T13:19:15;8.40;99.90
19220;DHT22;9744;49.364;7.484;2024-01-11T13:21:42;8.50;99.90
19220;DHT22;9744;49.364;7.484;2024-01-11T13:24:09;8.60;99.90
19220;DHT22;9744;49.364;7.484;2024-01-11T13:26:38;8.70;99.90
19220;DHT22;9744;49.364;7.484;2024-01-11T13:29:06;8.70;99.90
19220;DHT22;9744;49.364;7.484;2024-01-11T13:31:33;9.20;99.90
19220;DHT22;9744;49.364;7.484;2024-01-11T13:34:01;9.60;99.90
19220;DHT22;9744;49.364;7.484;2024-01-11T13:36:30;9.90;99.90
19220;DHT22;9744;49.364;7.484;2024-01-11T13:38:58;9.60;99.90
19220;DHT22;9744;49.364;7.484;2024-01-11T13:41:26;9.40;99.90
19220;DHT22;9744;49.364;7.484;2024-01-11T13:43:53;9.40;99.90
19220;DHT22;9744;49.364;7.484;2024-01-11T13:46:21;9.50;99.90
19220;DHT22;9744;49.364;7.484;2024-01-11T13:48:49;9.60;99.90
19220;DHT22;9744;49.364;7.484;2024-01-11T13:51:16;9.30;99.90
19220;DHT22;9744;49.364;7.484;2024-01-11T13:53:45;9.00;99.90
19220;DHT22;9744;49.364;7.484;2024-01-11T13:56:12;9.10;99.90
19220;DHT22;9744;49.364;7.484;2024-01-11T13:58:40;8.90;99.90
19220;DHT22;9744;49.364;7.484;2024-01-11T14:01:07;9.00;99.90
19220;DHT22;9744;49.364;7.484;2024-01-11T14:03:34;8.80;99.90
19220;DHT22;9744;49.364;7.484;2024-01-11T14:06:02;8.70;99.90
19220;DHT22;9744;49.364;7.484;2024-01-11T14:08:29;8.70;99.90
19220;DHT22;9744;49.364;7.484;2024-01-11T14:10:57;8.30;99.90
19220;DHT22;9744;49.364;7.484;2024-01-11T14:13:25;8.40;99.90
19220;DHT22;9744;49.364;7.484;2024-01-11T14:15:52;8.50;99.90
19220;DHT22;9744;49.364;7.484;2024-01-11T14:18:20;8.60;99.90
19220;DHT22;9744;49.364;7.484;2024-01-11T14:20:47;8.30;99.90
19220;DHT22;9744;49.364;7.484;2024-01-11T14:23:15;8.20;99.90
19220;DHT22;9744;49.364;7.484;2024-01-11T14:25:42;8.60;99.90
19220;DHT22;9744;49.364;7.484;2024-01-11T14:28:10;8.40;99.90
19220;DHT22;9744;49.364;7.484;2024-01-11T14:30:37;8.00;99.90
19220;DHT22;9744;49.364;7.484;2024-01-11T14:33:05;7.90;99.90
19220;DHT22;9744;49.364;7.484;2024-01-11T14:35:32;8.30;99.90
19220;DHT22;9744;49.364;7.484;2024-01-11T14:38:00;8.20;99.90
19220;DHT22;9744;49.364;7.484;2024-01-11T14:40:27;8.10;99.90
19220;DHT22;9744;49.364;7.484;2024-01-11T14:42:54;8.30;99.90
19220;DHT22;9744;49.364;7.484;2024-01-11T14:45:23;8.50;99.90
19220;DHT22;9744;49.364;7.484;2024-01-11T14:47:52;8.30;99.90
19220;DHT22;9744;49.364;7.484;2024-01-11T14:50:20;8.40;99.90
19220;DHT22;9744;49.364;7.484;2024-01-11T14:52:47;8.40;99.90
19220;DHT22;9744;49.364;7.484;2024-01-11T14:55:15;8.10;99.90
19220;DHT22;9744;49.364;7.484;2024-01-11T14:57:43;7.80;99.90
19220;DHT22;9744;49.364;7.484;2024-01-11T15:00:11;7.40;99.90
19220;DHT22;9744;49.364;7.484;2024-01-11T15:02:40;6.90;99.90
19220;DHT22;9744;49.364;7.484;2024-01-11T15:05:08;6.90;99.90
19220;DHT22;9744;49.364;7.484;2024-01-11T15:07:35;6.90;99.90
19220;DHT22;9744;49.364;7.484;2024-01-11T15:10:03;7.00;99.90
19220;DHT22;9744;49.364;7.484;2024-01-11T15:12:30;6.90;99.90
19220;DHT22;9744;49.364;7.484;2024-01-11T15:14:58;6.80;99.90
19220;DHT22;9744;49.364;7.484;2024-01-11T15:17:25;6.40;99.90
19220;DHT22;9744;49.364;7.484;2024-01-11T15:19:54;6.00;99.90
19220;DHT22;9744;49.364;7.484;2024-01-11T15:22:21;6.10;99.90
19220;DHT22;9744;49.364;7.484;2024-01-11T15:24:48;6.20;99.90
19220;DHT22;9744;49.364;7.484;2024-01-11T15:27:18;6.10;99.90
19220;DHT22;9744;49.364;7.484;2024-01-11T15:29:47;6.00;99.90
19220;DHT22;9744;49.364;7.484;2024-01-11T15:32:16;5.90;99.90
19220;DHT22;9744;49.364;7.484;2024-01-11T15:34:43;5.90;99.90
19220;DHT22;9744;49.364;7.484;2024-01-11T15:37:12;5.60;99.90
19220;DHT22;9744;49.364;7.484;2024-01-11T15:39:39;5.40;99.90
19220;DHT22;9744;49.364;7.484;2024-01-11T15:42:06;5.20;99.90
19220;DHT22;9744;49.364;7.484;2024-01-11T15:44:33;5.00;99.90
19220;DHT22;9744;49.364;7.484;2024-01-11T15:47:04;4.90;99.90
19220;DHT22;9744;49.364;7.484;2024-01-11T15:49:31;4.80;99.90
19220;DHT22;9744;49.364;7.484;2024-01-11T15:51:58;4.70;99.90
19220;DHT22;9744;49.364;7.484;2024-01-11T15:54:27;4.50;99.90
19220;DHT22;9744;49.364;7.484;2024-01-11T15:56:54;4.20;99.90
19220;DHT22;9744;49.364;7.484;2024-01-11T15:59:23;4.00;99.90